Terminal Aerodrome Forecast
Issued by NWS

Home | Current Version | Previous Version | Text Only | Print | Product List | Glossary On
Versions: 1 2 3 4 5 6 7 8 9 10 11 12 13 14 15 16 17 18 19 20 21
868
FTUS43 KDLH 251138
TAFHIB
TAF
KHIB 251138Z 2512/2612 31005KT P6SM SKC
     FM251600 29009G16KT P6SM SCT050
     FM260000 VRB03KT P6SM SKC
     FM260700 VRB02KT P6SM VCSH BKN070=

USA.gov is the U.S. government's official web portal to all federal, state and local government web resources and services.